Time;durP1;ratioP1;P1;durP2;ratioP2;P2;SDS_P1;SDS_P2;PMS_P1;PMS_P2;Temp;Humidity;BMP_temperature;BMP_pressure;BME280_temperature;BME280_humidity;BME280_pressure;Samples;Min_cycle;Max_cycle;Signal;HPM_P1;HPM_P2
2022/01/20 00:03:43;;;;;;;293.05;120.32;;;;;;;11.79;100.00;98485.88;5024805;28;20061;-64
2022/01/20 00:23:07;;;;;;;311.08;126.22;;;;;;;11.76;100.00;98480.84;5024414;28;20049;-63
2022/01/20 00:28:51;;;;;;;306.17;124.63;;;;;;;11.55;100.00;98509.16;5044870;28;20107;-64
2022/01/20 00:34:17;;;;;;;308.42;126.65;;;;;;;11.83;100.00;98515.00;5025159;28;20153;-64
2022/01/20 00:37:16;;;;;;;298.60;125.30;;;;;;;11.91;100.00;98527.59;5046301;28;20072;-64
2022/01/20 00:39:52;;;;;;;297.75;124.70;;;;;;;11.80;100.00;98528.88;5014794;28;20432;-64
2022/01/20 00:42:47;;;;;;;307.85;128.80;;;;;;;11.76;100.00;98524.69;5046925;28;20076;-65
2022/01/20 00:45:23;;;;;;;314.70;127.95;;;;;;;11.83;100.00;98526.16;5047974;28;20049;-64
2022/01/20 00:48:16;;;;;;;325.25;131.23;;;;;;;11.87;100.00;98524.31;5047936;28;20434;-64
2022/01/20 00:50:52;;;;;;;299.15;127.28;;;;;;;11.84;100.00;98520.09;5031225;28;20084;-63
2022/01/20 00:53:44;;;;;;;305.70;127.28;;;;;;;11.86;100.00;98515.72;5047727;28;20060;-64
2022/01/20 00:56:27;;;;;;;292.52;126.90;;;;;;;11.83;100.00;98513.25;5030199;28;20072;-64
2022/01/20 00:59:23;;;;;;;313.17;128.77;;;;;;;11.92;100.00;98518.97;5028477;28;20293;-64
2022/01/20 01:02:02;;;;;;;343.25;142.27;;;;;;;11.83;100.00;98518.41;5029639;28;20049;-64
2022/01/20 01:04:56;;;;;;;344.63;144.63;;;;;;;11.83;100.00;98517.56;5030006;28;20053;-64
2022/01/20 01:10:30;;;;;;;352.95;138.13;;;;;;;11.83;100.00;98535.63;5041203;28;20497;-64
2022/01/20 01:13:15;;;;;;;334.00;121.85;;;;;;;11.59;100.00;98532.19;5027078;28;20063;-64
2022/01/20 01:16:05;;;;;;;330.25;116.93;;;;;;;11.69;100.00;98532.69;5030064;28;20148;-64
2022/01/20 01:22:21;;;;;;;335.55;114.82;;;;;;;11.65;100.00;98533.72;5027444;28;20045;-63
2022/01/20 01:25:02;;;;;;;349.65;125.88;;;;;;;11.63;100.00;98535.50;5046114;28;20084;-64
2022/01/20 01:27:49;;;;;;;338.83;124.30;;;;;;;11.75;100.00;98541.09;5027499;28;20136;-62
2022/01/20 01:33:41;;;;;;;330.95;127.22;;;;;;;11.70;100.00;98537.81;5029547;28;20048;-64
2022/01/20 01:36:25;;;;;;;312.00;121.40;;;;;;;11.72;100.00;98538.59;5012350;28;20056;-64
2022/01/20 01:39:14;;;;;;;310.85;116.50;;;;;;;11.67;100.00;98540.50;5026573;28;20136;-64
2022/01/20 01:42:04;;;;;;;313.95;116.15;;;;;;;11.82;100.00;98545.13;5031470;28;20045;-64
2022/01/20 01:44:46;;;;;;;320.98;113.13;;;;;;;11.76;100.00;98535.03;5052409;28;20063;-64
2022/01/20 01:47:34;;;;;;;302.98;110.60;;;;;;;11.74;100.00;98539.41;5026741;28;20106;-64
2022/01/20 01:50:16;;;;;;;306.10;111.00;;;;;;;11.82;100.00;98537.38;5028508;28;20139;-63
2022/01/20 01:53:09;;;;;;;289.55;107.80;;;;;;;11.72;100.00;98541.19;5047172;28;20048;-64
2022/01/20 01:55:52;;;;;;;299.13;106.18;;;;;;;11.71;100.00;98544.66;5031650;28;20528;-64
2022/01/20 01:58:43;;;;;;;313.15;104.80;;;;;;;11.61;100.00;98548.47;5044977;28;20051;-64
2022/01/20 02:01:47;;;;;;;294.85;103.22;;;;;;;11.62;100.00;98545.00;4993946;28;20040;-64
2022/01/20 02:04:40;;;;;;;285.80;100.72;;;;;;;11.62;100.00;98559.63;5014779;28;20037;-64
2022/01/20 02:19:56;;;;;;;276.38;96.82;;;;;;;11.64;100.00;98563.84;5026267;28;20041;-63
2022/01/20 02:22:52;;;;;;;277.20;96.28;;;;;;;11.68;100.00;98575.72;5022803;28;20128;-64
2022/01/20 02:25:41;;;;;;;264.55;97.95;;;;;;;11.65;100.00;98572.44;5045640;28;20159;-64
2022/01/20 02:28:23;;;;;;;270.13;98.78;;;;;;;11.70;100.00;98579.09;5028459;28;20069;-65
2022/01/20 02:31:12;;;;;;;284.33;100.00;;;;;;;11.68;100.00;98586.03;5010956;28;20144;-64
2022/01/20 02:33:57;;;;;;;273.63;100.72;;;;;;;11.63;100.00;98585.38;5027584;28;20064;-64
2022/01/20 02:36:48;;;;;;;271.77;99.40;;;;;;;11.64;100.00;98584.47;5028586;28;20457;-64
2022/01/20 02:39:58;;;;;;;254.23;95.43;;;;;;;11.67;100.00;98576.63;5028532;28;20065;-64
2022/01/20 02:45:41;;;;;;;276.35;101.47;;;;;;;11.67;100.00;98586.94;5024428;28;20067;-64
2022/01/20 02:48:30;;;;;;;251.02;96.15;;;;;;;11.70;100.00;98589.41;5042867;28;20049;-64
2022/01/20 02:51:13;;;;;;;251.23;95.35;;;;;;;11.71;100.00;98596.25;5024700;28;20048;-64
2022/01/20 02:54:04;;;;;;;243.50;91.20;;;;;;;11.72;100.00;98592.78;5041734;28;20053;-65
2022/01/20 02:56:47;;;;;;;261.17;96.28;;;;;;;11.66;100.00;98593.00;5026638;28;20055;-64
2022/01/20 02:59:34;;;;;;;250.60;93.53;;;;;;;11.67;100.00;98594.69;5042969;28;20049;-65
2022/01/20 03:02:16;;;;;;;253.93;94.03;;;;;;;11.88;100.00;98599.13;5025742;28;20433;-64
2022/01/20 03:05:07;;;;;;;249.48;92.68;;;;;;;11.79;100.00;98609.78;5026491;28;20049;-64
2022/01/20 03:08:01;;;;;;;234.85;91.32;;;;;;;11.71;100.00;98616.06;5026196;28;20615;-65
2022/01/20 03:10:42;;;;;;;252.25;93.20;;;;;;;11.73;100.00;98622.84;5043873;28;20053;-64
2022/01/20 03:13:36;;;;;;;231.30;88.82;;;;;;;11.66;100.00;98629.13;5042253;28;20045;-64
2022/01/20 03:16:12;;;;;;;225.38;85.53;;;;;;;11.59;100.00;98626.81;5025416;28;20041;-64
2022/01/20 03:19:07;;;;;;;239.27;86.22;;;;;;;11.48;100.00;98630.63;5022096;28;20060;-64
2022/01/20 03:21:44;;;;;;;218.10;83.15;;;;;;;11.68;100.00;98635.06;5010128;28;20059;-64
2022/01/20 03:24:32;;;;;;;233.68;85.57;;;;;;;11.71;100.00;98637.56;5042770;28;20073;-64
2022/01/20 03:27:14;;;;;;;232.98;86.07;;;;;;;11.77;100.00;98637.38;5012331;28;20503;-64
2022/01/20 03:30:03;;;;;;;256.15;87.68;;;;;;;11.83;100.00;98651.78;5043225;28;20045;-64
2022/01/20 03:32:45;;;;;;;240.90;89.28;;;;;;;11.82;100.00;98648.34;5042889;28;20492;-63
2022/01/20 03:35:35;;;;;;;236.50;87.68;;;;;;;11.83;100.00;98655.19;5011754;28;20053;-65
2022/01/20 03:38:37;;;;;;;244.45;88.25;;;;;;;11.83;100.00;98659.53;5001983;28;20049;-64
2022/01/20 03:41:27;;;;;;;272.60;88.30;;;;;;;11.86;100.00;98667.16;5041964;28;22753;-64
2022/01/20 03:44:17;;;;;;;260.13;91.13;;;;;;;11.73;100.00;98673.63;5026338;28;20130;-64
2022/01/20 03:47:08;;;;;;;245.88;88.13;;;;;;;11.76;100.00;98670.97;5022960;28;20049;-62
2022/01/20 03:50:06;;;;;;;259.73;89.18;;;;;;;11.85;100.00;98679.22;5026911;28;20506;-64
2022/01/20 03:52:55;;;;;;;248.88;86.07;;;;;;;11.97;100.00;98679.72;5028962;28;20052;-64
2022/01/20 03:55:37;;;;;;;243.20;90.60;;;;;;;11.96;100.00;98685.75;5026330;28;20083;-65
2022/01/20 03:58:26;;;;;;;250.05;87.78;;;;;;;11.96;100.00;98678.03;5043833;28;20071;-64
2022/01/20 04:01:14;;;;;;;255.15;90.65;;;;;;;11.96;100.00;98678.84;5023322;28;20064;-64
2022/01/20 04:04:15;;;;;;;240.07;85.25;;;;;;;11.88;100.00;98679.13;5024538;28;20037;-64
2022/01/20 04:07:10;;;;;;;224.82;82.10;;;;;;;11.87;100.00;98679.19;5024602;28;20053;-65
2022/01/20 04:10:04;;;;;;;244.18;84.65;;;;;;;11.86;100.00;98682.66;5024171;28;20760;-64
2022/01/20 04:12:40;;;;;;;279.83;90.93;;;;;;;11.83;100.00;98687.91;5011458;28;20053;-64
2022/01/20 04:15:38;;;;;;;291.25;97.07;;;;;;;11.84;100.00;98689.59;5007526;28;20049;-64
2022/01/20 04:18:20;;;;;;;248.95;86.57;;;;;;;11.81;100.00;98695.69;5031044;28;20049;-64
2022/01/20 04:21:08;;;;;;;251.43;86.13;;;;;;;11.78;100.00;98707.88;5010653;28;20104;-64
2022/01/20 04:23:51;;;;;;;238.33;83.83;;;;;;;11.74;100.00;98704.56;5011317;28;20057;-64
2022/01/20 04:26:41;;;;;;;239.98;81.43;;;;;;;11.81;100.00;98695.69;5015548;28;20466;-63
2022/01/20 04:29:23;;;;;;;229.43;79.50;;;;;;;11.77;100.00;98706.19;5009517;28;20132;-63
2022/01/20 04:32:12;;;;;;;254.25;83.07;;;;;;;11.74;100.00;98712.28;5011006;28;20057;-63
2022/01/20 04:34:54;;;;;;;260.83;81.70;;;;;;;11.80;100.00;98704.38;5009237;28;20068;-64
2022/01/20 04:37:43;;;;;;;228.68;80.38;;;;;;;11.77;100.00;98711.34;5019981;28;20694;-62
2022/01/20 04:40:25;;;;;;;237.07;82.57;;;;;;;11.77;100.00;98717.38;5009126;28;20045;-62
2022/01/20 04:43:13;;;;;;;249.75;80.68;;;;;;;11.80;100.00;98724.16;5005915;28;20116;-63
2022/01/20 04:46:25;;;;;;;250.00;82.30;;;;;;;11.70;100.00;98717.59;4991238;28;20436;-63
2022/01/20 04:57:01;;;;;;;241.80;82.88;;;;;;;11.87;100.00;98726.50;4998153;28;20085;-63
2022/01/20 04:58:27;;;;;;;295.10;94.72;;;;;;;11.93;100.00;98740.06;5001188;28;20057;-63
2022/01/20 05:01:10;;;;;;;299.98;98.20;;;;;;;11.85;100.00;98738.59;5009321;28;20057;-63
2022/01/20 05:04:25;;;;;;;298.77;96.63;;;;;;;11.88;100.00;98742.81;5020942;28;20088;-63
2022/01/20 05:07:32;;;;;;;278.20;94.25;;;;;;;11.92;100.00;98738.38;5009433;28;20053;-63
2022/01/20 05:10:29;;;;;;;280.83;94.53;;;;;;;11.88;100.00;98754.00;4989975;28;20038;-62
2022/01/20 05:13:21;;;;;;;286.17;95.60;;;;;;;11.86;100.00;98755.78;4987150;28;20387;-63
2022/01/20 05:16:08;;;;;;;264.85;90.80;;;;;;;11.88;100.00;98756.56;4988929;28;20045;-62
2022/01/20 05:18:52;;;;;;;258.23;88.20;;;;;;;11.76;100.00;98759.56;4989711;28;20164;-63
2022/01/20 05:21:40;;;;;;;262.83;90.63;;;;;;;11.79;100.00;98756.03;4988456;28;20073;-61
2022/01/20 05:24:32;;;;;;;260.23;87.90;;;;;;;11.83;100.00;98755.88;4989118;28;20093;-62
2022/01/20 05:27:22;;;;;;;285.50;92.13;;;;;;;11.85;100.00;98748.91;4990119;28;20496;-62
2022/01/20 05:30:04;;;;;;;267.90;88.85;;;;;;;11.80;100.00;98750.81;4988945;28;20054;-63
2022/01/20 05:33:25;;;;;;;261.48;90.15;;;;;;;11.80;100.00;98753.41;4987377;28;20870;-62
2022/01/20 05:36:07;;;;;;;275.73;88.22;;;;;;;11.93;100.00;98752.97;4988598;28;20069;-62
2022/01/20 05:38:57;;;;;;;261.50;91.28;;;;;;;11.91;100.00;98745.28;4986074;28;20627;-62
2022/01/20 05:41:39;;;;;;;269.05;90.50;;;;;;;11.92;100.00;98746.97;5005726;28;20049;-62
2022/01/20 05:44:38;;;;;;;234.15;84.35;;;;;;;11.86;100.00;98735.13;4987861;28;20485;-62
2022/01/20 05:47:27;;;;;;;235.45;84.38;;;;;;;12.00;100.00;98744.97;4986609;28;20049;-64
2022/01/20 05:50:24;;;;;;;245.75;87.85;;;;;;;11.95;100.00;98746.88;5004413;28;20053;-63
2022/01/20 05:53:07;;;;;;;246.68;85.13;;;;;;;11.77;100.00;98739.75;4953603;28;20053;-64
2022/01/20 05:55:57;;;;;;;252.90;86.97;;;;;;;11.78;100.00;98731.97;5000572;28;20069;-64
2022/01/20 05:58:40;;;;;;;253.57;85.22;;;;;;;11.79;100.00;98728.50;4987479;28;20045;-63
2022/01/20 06:01:27;;;;;;;231.38;83.47;;;;;;;11.75;100.00;98726.03;4978924;28;20044;-64
2022/01/20 06:04:10;;;;;;;238.18;82.95;;;;;;;11.73;100.00;98720.91;4988278;28;20054;-65
2022/01/20 06:06:58;;;;;;;288.15;111.85;;;;;;;11.87;100.00;98726.50;4987998;28;20061;-68
2022/01/20 06:09:40;;;;;;;251.32;91.55;;;;;;;11.87;100.00;98726.50;5016025;28;20045;-66
2022/01/20 06:12:28;;;;;;;250.07;86.72;;;;;;;11.91;100.00;98728.94;5021863;28;20141;-65
2022/01/20 06:15:13;;;;;;;267.23;94.35;;;;;;;11.84;100.00;98729.16;5026415;28;20065;-66
2022/01/20 06:18:03;;;;;;;248.05;89.25;;;;;;;11.89;100.00;98732.41;5025664;28;20147;-63
2022/01/20 06:20:51;;;;;;;248.10;92.97;;;;;;;12.06;100.00;98718.06;5034693;28;20131;-64
2022/01/20 06:23:40;;;;;;;249.50;91.25;;;;;;;12.15;100.00;98720.34;5027032;28;20539;-64
2022/01/20 06:26:24;;;;;;;233.07;84.20;;;;;;;12.09;100.00;98721.41;5025251;28;20049;-63
2022/01/20 06:29:13;;;;;;;243.68;91.30;;;;;;;12.20;100.00;98723.63;5023704;28;20065;-65
2022/01/20 06:31:55;;;;;;;254.07;91.05;;;;;;;12.25;100.00;98709.63;5018592;28;20537;-63
2022/01/20 06:34:46;;;;;;;269.67;93.75;;;;;;;12.15;100.00;98704.84;5019228;28;20044;-65
2022/01/20 06:37:28;;;;;;;245.50;90.70;;;;;;;12.06;100.00;98705.16;5023258;28;20040;-65
2022/01/20 06:40:18;;;;;;;250.55;89.88;;;;;;;11.92;100.00;98700.50;5024083;28;20045;-66
2022/01/20 06:43:13;;;;;;;270.10;91.88;;;;;;;11.59;100.00;98688.72;5036385;28;20048;-65
2022/01/20 06:45:50;;;;;;;257.05;93.55;;;;;;;11.72;100.00;98677.94;5027555;28;20140;-65
2022/01/20 06:49:03;;;;;;;273.42;92.90;;;;;;;11.92;100.00;98671.25;5023187;28;20049;-64
2022/01/20 06:51:59;;;;;;;290.88;96.82;;;;;;;11.92;100.00;98666.94;5026758;28;20377;-65
2022/01/20 06:54:49;;;;;;;271.33;90.70;;;;;;;11.93;100.00;98663.47;5035649;28;20045;-65
2022/01/20 06:57:40;;;;;;;282.52;95.97;;;;;;;12.01;100.00;98658.03;5025971;28;20060;-65
2022/01/20 07:00:35;;;;;;;274.05;92.55;;;;;;;12.03;100.00;98651.91;5010643;28;20057;-64
2022/01/20 07:03:11;;;;;;;300.92;94.28;;;;;;;12.02;100.00;98651.97;5028304;28;20117;-64
2022/01/20 07:06:13;;;;;;;285.52;91.68;;;;;;;12.06;100.00;98658.69;5033367;28;20084;-67
2022/01/20 07:09:40;;;;;;;263.55;90.45;;;;;;;12.04;100.00;98647.59;4974318;28;20215;-65
2022/01/20 07:12:46;;;;;;;268.27;93.15;;;;;;;12.05;100.00;98644.13;4971884;28;20045;-64
2022/01/20 07:15:28;;;;;;;275.73;93.03;;;;;;;12.00;100.00;98640.84;5013986;28;20155;-65
2022/01/20 07:18:17;;;;;;;271.55;90.30;;;;;;;12.09;100.00;98637.94;5041729;28;20053;-65
2022/01/20 07:20:59;;;;;;;283.77;94.15;;;;;;;12.18;100.00;98632.44;5024916;28;20574;-65
2022/01/20 07:24:00;;;;;;;290.35;94.32;;;;;;;12.18;100.00;98622.09;5002134;28;20067;-65
2022/01/20 07:26:42;;;;;;;302.95;94.75;;;;;;;11.93;100.00;98616.16;5007196;28;20484;-65
2022/01/20 07:29:34;;;;;;;287.52;95.80;;;;;;;11.99;100.00;98608.19;5024410;28;20507;-65
2022/01/20 07:32:16;;;;;;;293.27;92.50;;;;;;;12.06;100.00;98607.06;5023936;28;20102;-64
2022/01/20 07:35:05;;;;;;;278.02;93.88;;;;;;;12.05;100.00;98593.31;5010230;28;20717;-64
2022/01/20 07:37:48;;;;;;;292.90;97.07;;;;;;;12.10;100.00;98594.00;5026307;28;20059;-65
2022/01/20 07:40:43;;;;;;;312.25;95.40;;;;;;;12.02;100.00;98584.84;5011556;28;20076;-65
2022/01/20 07:43:33;;;;;;;299.17;96.45;;;;;;;12.10;100.00;98586.25;5040646;28;20053;-66
2022/01/20 07:46:39;;;;;;;284.85;93.60;;;;;;;12.13;100.00;98587.88;5023826;28;20049;-65
2022/01/20 07:49:29;;;;;;;266.38;90.28;;;;;;;12.19;100.00;98579.88;5042468;28;20053;-63
2022/01/20 07:52:12;;;;;;;293.35;92.60;;;;;;;12.10;100.00;98567.31;5027923;28;20049;-64
2022/01/20 07:55:02;;;;;;;284.25;89.50;;;;;;;12.18;100.00;98555.81;5020681;28;20838;-62
2022/01/20 07:57:43;;;;;;;262.77;88.10;;;;;;;12.10;100.00;98550.09;5042983;28;20164;-63
2022/01/20 08:00:37;;;;;;;;;;;;;;;12.21;100.00;98549.69;5029048;28;20052;-64
2022/01/20 08:03:25;;;;;;;261.77;86.60;;;;;;;12.25;100.00;98546.91;5018599;28;19932;-63
2022/01/20 08:06:14;;;;;;;287.75;92.32;;;;;;;12.31;100.00;98545.81;5033142;28;20061;-64
2022/01/20 08:09:14;;;;;;;302.90;95.35;;;;;;;12.27;100.00;98546.88;5031444;28;20056;-64
2022/01/20 08:12:29;;;;;;;270.75;90.88;;;;;;;12.43;100.00;98545.34;5010003;28;20049;-64
2022/01/20 08:15:15;;;;;;;265.08;90.30;;;;;;;12.42;100.00;98554.00;5031803;28;20056;-64
2022/01/20 08:18:11;;;;;;;267.88;92.22;;;;;;;12.38;100.00;98536.94;5024114;28;20434;-63
2022/01/20 08:20:53;;;;;;;294.27;96.03;;;;;;;12.45;100.00;98525.44;5047242;28;20048;-65
2022/01/20 08:23:43;;;;;;;272.90;92.70;;;;;;;12.48;100.00;98527.91;5029185;28;20049;-64
2022/01/20 08:26:26;;;;;;;274.02;90.80;;;;;;;12.36;100.00;98525.00;5046811;28;20041;-63
2022/01/20 08:29:15;;;;;;;278.58;89.93;;;;;;;12.54;100.00;98527.66;5027620;28;20045;-65
2022/01/20 08:31:58;;;;;;;280.38;91.20;;;;;;;12.67;100.00;98527.19;5057205;28;20044;-66
2022/01/20 08:34:57;;;;;;;271.23;89.35;;;;;;;12.40;100.00;98509.31;5026367;28;20139;-65
2022/01/20 08:38:03;;;;;;;290.10;91.80;;;;;;;12.64;100.00;98505.72;5026694;28;20052;-66
2022/01/20 08:40:52;;;;;;;278.58;90.13;;;;;;;12.75;100.00;98501.88;5027216;28;20049;-67
2022/01/20 08:43:38;;;;;;;300.38;91.75;;;;;;;12.60;100.00;98511.94;5009944;28;20041;-66
2022/01/20 08:46:27;;;;;;;300.38;92.38;;;;;;;12.47;100.00;98509.88;5025588;28;20391;-66
2022/01/20 08:49:09;;;;;;;286.45;92.00;;;;;;;12.50;100.00;98504.59;5022702;28;20045;-66
2022/01/20 08:52:03;;;;;;;292.42;92.10;;;;;;;12.48;100.00;98506.41;5028944;28;20056;-66
2022/01/20 08:54:58;;;;;;;304.05;92.05;;;;;;;12.58;100.00;98502.56;5010454;28;20925;-67
2022/01/20 08:57:58;;;;;;;296.67;94.57;;;;;;;12.53;100.00;98509.66;5040069;28;20045;-66
2022/01/20 09:00:48;;;;;;;283.83;96.68;;;;;;;12.50;100.00;98508.03;5028312;28;20083;-66
2022/01/20 09:03:47;;;;;;;310.58;98.60;;;;;;;12.60;100.00;98511.09;5024667;28;20137;-67
2022/01/20 09:06:23;;;;;;;319.58;98.75;;;;;;;12.62;100.00;98498.94;5023852;28;20071;-67
2022/01/20 09:09:30;;;;;;;321.45;100.47;;;;;;;12.62;100.00;98496.34;5026887;28;20044;-67
2022/01/20 09:18:25;;;;;;;340.52;102.22;;;;;;;12.78;100.00;98483.63;5024421;28;20091;-68
2022/01/20 09:21:20;;;;;;;360.30;103.40;;;;;;;12.56;100.00;98492.28;5028404;28;20041;-68
2022/01/20 09:24:04;;;;;;;360.73;105.82;;;;;;;12.67;100.00;98488.41;5026077;28;20107;-66
2022/01/20 09:26:53;;;;;;;330.05;102.20;;;;;;;12.65;100.00;98491.91;5041235;28;20164;-67
2022/01/20 09:29:35;;;;;;;338.58;103.32;;;;;;;12.79;100.00;98486.16;5041834;28;20586;-68
2022/01/20 09:32:27;;;;;;;340.33;104.88;;;;;;;12.77;100.00;98494.91;5024116;28;20075;-62
2022/01/20 09:35:10;;;;;;;335.90;104.03;;;;;;;12.80;100.00;98487.00;5028390;28;20344;-66
2022/01/20 09:38:01;;;;;;;350.27;105.43;;;;;;;12.86;100.00;98491.91;5036939;28;20057;-65
2022/01/20 09:40:53;;;;;;;335.95;102.82;;;;;;;12.80;100.00;98495.59;5006407;28;21434;-68
2022/01/20 09:43:42;;;;;;;323.73;103.22;;;;;;;12.83;100.00;98492.03;4991126;28;20045;-67
2022/01/20 09:46:31;;;;;;;316.63;103.80;;;;;;;12.83;100.00;98487.72;5027283;28;20072;-65
2022/01/20 09:49:33;;;;;;;332.25;110.13;;;;;;;12.77;100.00;98481.97;5000613;28;20046;-65
2022/01/20 09:52:33;;;;;;;338.73;104.60;;;;;;;12.75;100.00;98476.00;5016986;28;20041;-65
2022/01/20 09:55:40;;;;;;;330.52;106.88;;;;;;;12.74;100.00;98474.34;5025913;28;20092;-65
2022/01/20 09:58:23;;;;;;;330.65;105.05;;;;;;;12.74;100.00;98480.34;5024105;28;20127;-67
2022/01/20 10:01:12;;;;;;;310.50;103.93;;;;;;;12.69;100.00;98469.34;5018446;28;20088;-65
2022/01/20 10:04:02;;;;;;;260.75;95.97;;;;;;;12.71;100.00;98477.03;5021482;28;20053;-63
2022/01/20 10:07:03;;;;;;;280.55;99.07;;;;;;;12.74;100.00;98482.09;5023714;28;20041;-65
2022/01/20 10:10:06;;;;;;;294.05;101.13;;;;;;;12.76;100.00;98485.47;5023037;28;20044;-65
2022/01/20 10:13:09;;;;;;;304.42;101.95;;;;;;;12.72;100.00;98476.13;5041740;28;20045;-65
2022/01/20 10:16:18;;;;;;;312.33;102.40;;;;;;;12.71;100.00;98471.88;5029296;28;20041;-67
2022/01/20 10:19:07;;;;;;;299.40;101.43;;;;;;;12.70;100.00;98470.19;5027791;28;20040;-67
2022/01/20 10:21:56;;;;;;;307.38;104.68;;;;;;;12.62;100.00;98467.91;5027405;28;20500;-67
2022/01/20 10:25:08;;;;;;;305.05;98.60;;;;;;;12.67;100.00;98472.91;5030406;28;20045;-67
2022/01/20 10:28:08;;;;;;;270.90;96.53;;;;;;;12.61;100.00;98461.09;5025975;28;20041;-66
2022/01/20 10:30:55;;;;;;;263.25;95.10;;;;;;;12.67;100.00;98457.41;5044446;28;20546;-65
2022/01/20 10:33:46;;;;;;;239.35;87.85;;;;;;;12.68;100.00;98465.09;5025340;28;20752;-66
2022/01/20 10:36:40;;;;;;;234.75;85.18;;;;;;;12.70;100.00;98459.84;5024354;28;20056;-65
2022/01/20 10:39:42;;;;;;;225.30;84.82;;;;;;;12.70;100.00;98459.84;5024799;28;20132;-67
2022/01/20 10:42:31;;;;;;;208.60;79.65;;;;;;;12.51;100.00;98455.47;5022657;28;20049;-66
2022/01/20 10:45:28;;;;;;;209.98;78.10;;;;;;;12.62;100.00;98468.75;5039968;28;20049;-65
2022/01/20 10:48:24;;;;;;;202.80;75.32;;;;;;;12.63;100.00;98474.78;5024120;28;20052;-65
2022/01/20 10:51:19;;;;;;;211.68;76.47;;;;;;;12.72;100.00;98473.53;5013297;28;20055;-66
2022/01/20 10:54:16;;;;;;;195.27;73.50;;;;;;;12.76;100.00;98475.13;5024890;28;20060;-66
2022/01/20 10:57:11;;;;;;;204.88;75.57;;;;;;;12.75;100.00;98476.00;5025918;28;20110;-65
2022/01/20 11:00:03;;;;;;;204.02;74.68;;;;;;;12.74;100.00;98467.41;5025507;28;20476;-64
2022/01/20 11:02:58;;;;;;;201.70;74.10;;;;;;;12.73;100.00;98464.91;5018691;28;20084;-65
2022/01/20 11:05:52;;;;;;;213.57;72.70;;;;;;;12.72;100.00;98458.03;5022335;28;20041;-65
2022/01/20 11:08:43;;;;;;;208.48;74.60;;;;;;;12.77;100.00;98450.94;5023554;28;20041;-65
2022/01/20 11:11:48;;;;;;;198.77;72.40;;;;;;;12.82;100.00;98446.41;5018467;28;20490;-63
2022/01/20 11:14:48;;;;;;;192.18;72.75;;;;;;;12.77;100.00;98450.94;5019455;28;20127;-64
2022/01/20 11:17:40;;;;;;;188.60;69.15;;;;;;;12.70;100.00;98441.75;5022844;28;20052;-65
2022/01/20 11:20:28;;;;;;;186.88;68.30;;;;;;;12.68;100.00;98448.75;5036994;28;20057;-65
2022/01/20 11:23:19;;;;;;;180.73;68.50;;;;;;;12.71;100.00;98444.28;5020859;28;20099;-64
2022/01/20 11:26:08;;;;;;;181.80;72.78;;;;;;;12.74;100.00;98446.75;5022826;28;20295;-65
2022/01/20 11:29:05;;;;;;;186.63;70.10;;;;;;;12.95;100.00;98447.56;5041636;28;20044;-65
2022/01/20 11:32:27;;;;;;;178.15;69.22;;;;;;;12.81;100.00;98444.72;5024197;28;20063;-65
2022/01/20 11:35:26;;;;;;;181.50;69.75;;;;;;;12.77;100.00;98445.78;5021483;28;20049;-65
2022/01/20 11:38:09;;;;;;;173.90;68.22;;;;;;;12.78;100.00;98452.59;5037883;28;20507;-65
2022/01/20 11:41:04;;;;;;;183.23;70.93;;;;;;;12.77;100.00;98445.78;5041911;28;20056;-64
2022/01/20 11:43:53;;;;;;;181.57;69.10;;;;;;;12.83;100.00;98445.50;5041959;28;20607;-65
2022/01/20 11:46:45;;;;;;;171.90;65.30;;;;;;;12.81;100.00;98448.16;5041748;28;20052;-64
2022/01/20 11:49:35;;;;;;;169.00;67.85;;;;;;;12.74;100.00;98446.75;5038156;28;20045;-65
2022/01/20 11:52:25;;;;;;;165.43;65.20;;;;;;;12.77;100.00;98443.19;5039616;28;20548;-65
2022/01/20 11:55:26;;;;;;;172.00;67.40;;;;;;;12.88;100.00;98441.81;5014530;28;20451;-65
2022/01/20 11:58:21;;;;;;;171.43;66.55;;;;;;;12.94;100.00;98444.13;5043484;28;20049;-65
2022/01/20 12:01:09;;;;;;;180.52;71.78;;;;;;;12.95;100.00;98435.47;5025879;28;20060;-65
2022/01/20 12:03:59;;;;;;;174.43;68.18;;;;;;;12.94;100.00;98440.69;5036542;28;20053;-64
2022/01/20 12:06:48;;;;;;;172.57;68.95;;;;;;;12.91;100.00;98444.28;5024612;28;20810;-65
2022/01/20 12:09:42;;;;;;;172.48;69.85;;;;;;;12.87;100.00;98447.03;5040216;28;20041;-65
2022/01/20 12:12:32;;;;;;;171.27;69.20;;;;;;;12.82;100.00;98449.84;5026719;28;20049;-65
2022/01/20 12:15:26;;;;;;;169.95;68.20;;;;;;;12.82;100.00;98449.00;5025667;28;20049;-65
2022/01/20 12:18:09;;;;;;;157.57;65.25;;;;;;;12.81;100.00;98455.91;5038461;28;20048;-64
2022/01/20 12:21:05;;;;;;;193.95;71.32;;;;;;;12.85;100.00;98460.03;5039760;28;20044;-63
2022/01/20 12:23:51;;;;;;;175.27;67.40;;;;;;;12.91;100.00;98459.78;4996738;28;20867;-62
2022/01/20 12:26:40;;;;;;;181.57;73.17;;;;;;;12.72;100.00;98458.03;5024019;28;20037;-62
2022/01/20 12:29:23;;;;;;;183.85;71.05;;;;;;;12.86;100.00;98461.72;5039594;28;20124;-65
2022/01/20 12:32:15;;;;;;;177.45;68.50;;;;;;;12.90;100.00;98459.84;5024660;28;20483;-66
2022/01/20 12:35:09;;;;;;;192.68;73.25;;;;;;;12.95;100.00;98468.25;5048360;28;20049;-65
2022/01/20 12:37:58;;;;;;;;;;;;;;;12.90;100.00;98459.84;5039853;28;20403;-65
2022/01/20 12:40:39;;;;;;;187.10;70.70;;;;;;;12.83;100.00;98468.78;5045200;28;19924;-64
2022/01/20 12:43:45;;;;;;;193.00;73.93;;;;;;;12.71;100.00;98470.13;5025529;28;20437;-64
2022/01/20 12:46:32;;;;;;;208.95;74.18;;;;;;;12.73;100.00;98462.31;5038101;28;20061;-64
2022/01/20 12:49:23;;;;;;;190.95;71.43;;;;;;;12.71;100.00;98471.88;5043534;28;20049;-62
2022/01/20 12:52:12;;;;;;;188.68;71.65;;;;;;;12.69;100.00;98468.53;5049029;28;20044;-65
2022/01/20 12:54:56;;;;;;;185.25;68.88;;;;;;;12.70;100.00;98470.19;5025076;28;20054;-62
2022/01/20 12:57:52;;;;;;;180.05;70.15;;;;;;;12.77;100.00;98474.22;4690774;28;10000530;-63
2022/01/20 13:00:27;;;;;;;189.70;71.32;;;;;;;12.68;100.00;98472.00;5021871;28;20055;-65
2022/01/20 13:03:23;;;;;;;184.63;71.78;;;;;;;12.66;100.00;98459.16;5042122;28;20041;-65
2022/01/20 13:06:00;;;;;;;178.32;73.85;;;;;;;12.69;100.00;98476.28;5043633;28;20052;-63
2022/01/20 13:09:08;;;;;;;181.10;73.25;;;;;;;12.76;100.00;98472.53;5043218;28;20037;-61
2022/01/20 13:12:20;;;;;;;179.13;71.20;;;;;;;12.65;100.00;98470.38;5043416;28;20492;-63
2022/01/20 13:15:04;;;;;;;174.85;70.45;;;;;;;12.58;100.00;98476.72;5041078;28;20063;-65
2022/01/20 13:17:46;;;;;;;177.35;67.25;;;;;;;12.59;100.00;98487.00;5040284;28;20320;-63
2022/01/20 13:20:41;;;;;;;185.18;70.15;;;;;;;12.58;100.00;98482.72;5039724;28;20046;-64
2022/01/20 13:26:12;;;;;;;181.70;69.93;;;;;;;12.63;100.00;98485.09;5042608;28;20045;-62
2022/01/20 13:29:10;;;;;;;181.98;69.18;;;;;;;12.58;100.00;98472.38;5022514;28;20052;-61
2022/01/20 13:31:58;;;;;;;184.00;72.78;;;;;;;12.60;100.00;98477.50;5038910;28;20049;-65
2022/01/20 13:34:46;;;;;;;;;;;;;;;12.53;100.00;98482.06;5043608;28;20075;-64
2022/01/20 13:37:37;;;;;;;172.95;66.93;;;;;;;12.47;100.00;98477.16;5041587;28;19990;-66
2022/01/20 13:40:21;;;;;;;166.75;68.45;;;;;;;12.46;100.00;98487.53;5034049;28;20144;-63
2022/01/20 13:46:27;;;;;;;175.27;70.55;;;;;;;12.64;100.00;98490.22;5024032;28;20067;-63
2022/01/20 13:49:23;;;;;;;184.52;70.40;;;;;;;12.57;100.00;98496.53;5023346;28;20060;-64
2022/01/20 13:52:18;;;;;;;174.50;67.72;;;;;;;12.74;100.00;98500.19;5042905;28;20484;-62
2022/01/20 13:55:01;;;;;;;172.93;70.60;;;;;;;12.75;100.00;98499.28;5039498;28;20190;-62